地図

経路データ

SID SEASON NUMBER BASIN SUBBASIN NAME ISO_TIME NATURE LAT LON WMO_WIND WMO_PRES WMO_AGENCY TRACK_TYPE DIST2LAND LANDFALL IFLAG USA_AGENCY USA_ATCF_ID USA_LAT USA_LON USA_RECORD USA_STATUS USA_WIND USA_PRES USA_SSHS USA_R34_NE USA_R34_SE USA_R34_SW USA_R34_NW USA_R50_NE USA_R50_SE USA_R50_SW USA_R50_NW USA_R64_NE USA_R64_SE USA_R64_SW USA_R64_NW USA_POCI USA_ROCI USA_RMW USA_EYE TOKYO_LAT TOKYO_LON TOKYO_GRADE TOKYO_WIND TOKYO_PRES TOKYO_R50_DIR TOKYO_R50_LONG TOKYO_R50_SHORT TOKYO_R30_DIR TOKYO_R30_LONG TOKYO_R30_SHORT TOKYO_LAND CMA_LAT CMA_LON CMA_CAT CMA_WIND CMA_PRES HKO_LAT HKO_LON HKO_CAT HKO_WIND HKO_PRES NEWDELHI_LAT NEWDELHI_LON NEWDELHI_GRADE NEWDELHI_WIND NEWDELHI_PRES NEWDELHI_CI NEWDELHI_DP NEWDELHI_POCI REUNION_LAT REUNION_LON REUNION_TYPE REUNION_WIND REUNION_PRES REUNION_TNUM REUNION_CI REUNION_RMW REUNION_R34_NE REUNION_R34_SE REUNION_R34_SW REUNION_R34_NW REUNION_R50_NE REUNION_R50_SE REUNION_R50_SW REUNION_R50_NW REUNION_R64_NE REUNION_R64_SE REUNION_R64_SW REUNION_R64_NW BOM_LAT BOM_LON BOM_TYPE BOM_WIND BOM_PRES BOM_TNUM BOM_CI BOM_RMW BOM_R34_NE BOM_R34_SE BOM_R34_SW BOM_R34_NW BOM_R50_NE BOM_R50_SE BOM_R50_SW BOM_R50_NW BOM_R64_NE BOM_R64_SE BOM_R64_SW BOM_R64_NW BOM_ROCI BOM_POCI BOM_EYE BOM_POS_METHOD BOM_PRES_METHOD NADI_LAT NADI_LON NADI_CAT NADI_WIND NADI_PRES WELLINGTON_LAT WELLINGTON_LON WELLINGTON_WIND WELLINGTON_PRES DS824_LAT DS824_LON DS824_STAGE DS824_WIND DS824_PRES TD9636_LAT TD9636_LON TD9636_STAGE TD9636_WIND TD9636_PRES TD9635_LAT TD9635_LON TD9635_WIND TD9635_PRES TD9635_ROCI NEUMANN_LAT NEUMANN_LON NEUMANN_CLASS NEUMANN_WIND NEUMANN_PRES MLC_LAT MLC_LON MLC_CLASS MLC_WIND MLC_PRES USA_GUST BOM_GUST BOM_GUST_PER REUNION_GUST REUNION_GUST_PER USA_SEAHGT USA_SEARAD_NE USA_SEARAD_SE USA_SEARAD_SW USA_SEARAD_NW STORM_SPEED STORM_DIR
1917247N11127 1917 39 WP MM NOT_NAMED 1917-09-04 09:00:00 NR 11.0000 126.900 main 120 120 __________O___ -1 11.0000 126.900 4 27 4
1917247N11127 1917 39 WP MM NOT_NAMED 1917-09-04 12:00:00 NR 12.3483 126.986 main 163 163 __________P___ -1 12.3483 126.986 4 26 4
1917247N11127 1917 39 WP MM NOT_NAMED 1917-09-04 15:00:00 NR 13.6179 127.069 main 233 233 __________P___ -1 13.6179 127.069 4 24 4
1917247N11127 1917 39 WP MM NOT_NAMED 1917-09-04 18:00:00 NR 14.7283 127.142 main 304 304 __________P___ -1 14.7283 127.142 4 20 4
1917247N11127 1917 39 WP MM NOT_NAMED 1917-09-04 21:00:00 NR 15.6000 127.200 main 356 356 __________O___ -1 15.6000 127.200 4 15 4
1917247N11127 1917 39 WP MM NOT_NAMED 1917-09-05 00:00:00 NR 16.1835 127.240 main 395 395 __________P___ -1 16.1835 127.240 4 10 4
1917247N11127 1917 39 WP MM NOT_NAMED 1917-09-05 03:00:00 NR 16.5468 127.266 main 426 426 __________P___ -1 16.5468 127.266 4 6 3
1917247N11127 1917 39 WP MM NOT_NAMED 1917-09-05 06:00:00 NR 16.7868 127.283 main 449 449 __________P___ -1 16.7868 127.283 4 5 4
1917247N11127 1917 39 WP MM NOT_NAMED 1917-09-05 09:00:00 NR 17.0000 127.300 main 464 464 __________O___ -1 17.0000 127.300 4 5 3
1917247N11127 1917 39 WP MM NOT_NAMED 1917-09-05 12:00:00 NR 17.3078 127.321 main 489 489 __________P___ -1 17.3078 127.321 4 6 4
1917247N11127 1917 39 WP MM NOT_NAMED 1917-09-05 15:00:00 NR 17.6125 127.343 main 514 514 __________P___ -1 17.6125 127.343 4 6 4
1917247N11127 1917 39 WP MM NOT_NAMED 1917-09-05 18:00:00 NR 17.9359 127.368 main 529 529 __________P___ -1 17.9359 127.368 4 7 5
1917247N11127 1917 39 WP MM NOT_NAMED 1917-09-05 21:00:00 NR 18.3000 127.400 main 538 538 __________O___ -1 18.3000 127.400 4 8 6
1917247N11127 1917 39 WP MM NOT_NAMED 1917-09-06 00:00:00 NR 18.7035 127.447 main 538 538 __________P___ -1 18.7035 127.447 4 9 6
1917247N11127 1917 39 WP MM NOT_NAMED 1917-09-06 03:00:00 NR 19.1526 127.500 main 554 554 __________P___ -1 19.1526 127.500 4 10 6
1917247N11127 1917 39 WP MM NOT_NAMED 1917-09-06 06:00:00 NR 19.6504 127.553 main 575 575 __________P___ -1 19.6504 127.553 4 11 5
1917247N11127 1917 39 WP MM NOT_NAMED 1917-09-06 09:00:00 NR 20.2000 127.600 main 591 591 __________O___ -1 20.2000 127.600 4 12 5
1917247N11127 1917 39 WP MM NOT_NAMED 1917-09-06 12:00:00 NR 20.8200 127.656 main 626 626 __________P___ -1 20.8200 127.656 4 13 4
1917247N11127 1917 39 WP MM NOT_NAMED 1917-09-06 15:00:00 NR 21.4850 127.702 main 662 649 __________P___ -1 21.4850 127.702 4 13 2
1917247N11127 1917 39 WP MM NOT_NAMED 1917-09-06 18:00:00 NR 22.1575 127.721 main 645 620 __________P___ -1 22.1575 127.721 4 13 359
1917247N11127 1917 39 WP MM NOT_NAMED 1917-09-06 21:00:00 NR 22.8000 127.700 main 620 594 __________O___ -1 22.8000 127.700 4 12 357
1917247N11127 1917 39 WP MM NOT_NAMED 1917-09-07 00:00:00 NR 23.3688 127.642 main 591 569 __________P___ -1 23.3688 127.642 4 11 352
1917247N11127 1917 39 WP MM NOT_NAMED 1917-09-07 03:00:00 NR 23.9022 127.540 main 569 549 __________P___ -1 23.9022 127.540 4 11 348
1917247N11127 1917 39 WP MM NOT_NAMED 1917-09-07 06:00:00 NR 24.4094 127.392 main 549 523 __________P___ -1 24.4094 127.392 4 11 343
1917247N11127 1917 39 WP MM NOT_NAMED 1917-09-07 09:00:00 NR 24.9000 127.200 main 523 503 __________O___ -1 24.9000 127.200 4 11 339
1917247N11127 1917 39 WP MM NOT_NAMED 1917-09-07 12:00:00 NR 25.4222 126.953 main 504 480 __________P___ -1 25.4222 126.953 4 11 335
1917247N11127 1917 39 WP MM NOT_NAMED 1917-09-07 15:00:00 NR 25.9254 126.666 main 482 463 __________P___ -1 25.9254 126.666 4 11 332
1917247N11127 1917 39 WP MM NOT_NAMED 1917-09-07 18:00:00 NR 26.3909 126.372 main 467 451 __________P___ -1 26.3909 126.372 4 10 330
1917247N11127 1917 39 WP MM NOT_NAMED 1917-09-07 21:00:00 NR 26.8000 126.100 main 456 443 __________O___ -1 26.8000 126.100 4 8 331
1917247N11127 1917 39 WP MM NOT_NAMED 1917-09-08 00:00:00 NR 27.1239 125.907 main 443 413 __________P___ -1 27.1239 125.907 4 7 332
1917247N11127 1917 39 WP MM NOT_NAMED 1917-09-08 03:00:00 NR 27.3944 125.740 main 413 394 __________P___ -1 27.3944 125.740 4 6 331
1917247N11127 1917 39 WP MM NOT_NAMED 1917-09-08 06:00:00 NR 27.6427 125.579 main 394 362 __________P___ -1 27.6427 125.579 4 6 329
1917247N11127 1917 39 WP MM NOT_NAMED 1917-09-08 09:00:00 NR 27.9000 125.400 main 362 331 __________O___ -1 27.9000 125.400 4 7 329
1917247N11127 1917 39 WP MM NOT_NAMED 1917-09-08 12:00:00 NR 28.2103 125.195 main 331 302 __________P___ -1 28.2103 125.195 4 7 329
1917247N11127 1917 39 WP MM NOT_NAMED 1917-09-08 15:00:00 NR 28.5345 124.967 main 302 266 __________P___ -1 28.5345 124.967 4 8 327
1917247N11127 1917 39 WP MM NOT_NAMED 1917-09-08 18:00:00 NR 28.8664 124.704 main 264 232 __________P___ -1 28.8664 124.704 4 8 323
1917247N11127 1917 39 WP MM NOT_NAMED 1917-09-08 21:00:00 NR 29.2000 124.400 main 232 206 __________O___ -1 29.2000 124.400 4 8 319
1917247N11127 1917 39 WP MM NOT_NAMED 1917-09-09 00:00:00 NR 29.5082 124.074 main 206 173 __________P___ -1 29.5082 124.074 4 9 316
1917247N11127 1917 39 WP MM NOT_NAMED 1917-09-09 03:00:00 NR 29.8190 123.702 main 173 138 __________P___ -1 29.8190 123.702 4 9 313
1917247N11127 1917 39 WP MM NOT_NAMED 1917-09-09 06:00:00 NR 30.1453 123.280 main 138 96 __________P___ -1 30.1453 123.280 4 10 311
1917247N11127 1917 39 WP MM NOT_NAMED 1917-09-09 09:00:00 NR 30.5000 122.800 main 96 30 __________O___ -1 30.5000 122.800 4 12 305
1917247N11127 1917 39 WP MM NOT_NAMED 1917-09-09 12:00:00 NR 30.8301 122.139 main 22 0 __________P___ -1 30.8301 122.139 4 14 301
1917247N11127 1917 39 WP MM NOT_NAMED 1917-09-09 15:00:00 NR 31.1966 121.441 main 0 0 __________P___ -1 31.1966 121.441 4 14 306
1917247N11127 1917 39 WP MM NOT_NAMED 1917-09-09 18:00:00 NR 31.6392 120.822 main 0 0 __________P___ -1 31.6392 120.822 4 13 319
1917247N11127 1917 39 WP MM NOT_NAMED 1917-09-09 21:00:00 NR 32.2000 120.400 main 0 0 __________O___ -1 32.2000 120.400 4 14 340
1917247N11127 1917 39 WP MM NOT_NAMED 1917-09-10 00:00:00 NR 32.9691 120.236 main 0 0 __________P___ -1 32.9691 120.236 4 17 357
1917247N11127 1917 39 WP MM NOT_NAMED 1917-09-10 03:00:00 NR 33.8504 120.295 main 0 0 __________P___ -1 33.8504 120.295 4 18 8
1917247N11127 1917 39 WP MM NOT_NAMED 1917-09-10 06:00:00 NR 34.7567 120.556 main 62 61 __________P___ -1 34.7567 120.556 4 18 18
1917247N11127 1917 39 WP MM NOT_NAMED 1917-09-10 09:00:00 NR 35.6000 121.000 main 61 46 __________O___ -1 35.6000 121.000 4 16 25
1917247N11127 1917 39 WP MM NOT_NAMED 1917-09-10 12:00:00 NR 36.2298 121.418 main 48 11 __________P___ -1 36.2298 121.418 4 14 35
1917247N11127 1917 39 WP MM NOT_NAMED 1917-09-10 15:00:00 NR 36.7882 122.024 main 11 0 __________P___ -1 36.7882 122.024 4 16 47
1917247N11127 1917 39 WP MM NOT_NAMED 1917-09-10 18:00:00 NR 37.3281 122.868 main 26 26 __________P___ -1 37.3281 122.868 4 19 55
1917247N11127 1917 39 WP MM NOT_NAMED 1917-09-10 21:00:00 NR 37.9000 124.000 main 65 0 __________O___ -1 37.9000 124.000 4 24 61
1917247N11127 1917 39 WP MM NOT_NAMED 1917-09-11 00:00:00 NR 38.4857 125.487 main 0 0 __________P___ -1 38.4857 125.487 4 28 65
1917247N11127 1917 39 WP MM NOT_NAMED 1917-09-11 03:00:00 NR 39.1036 127.264 main 0 0 __________P___ -1 39.1036 127.264 4 32 66
1917247N11127 1917 39 WP MM NOT_NAMED 1917-09-11 06:00:00 NR 39.7927 129.209 main 67 67 __________P___ -1 39.7927 129.209 4 34 64
1917247N11127 1917 39 WP MM NOT_NAMED 1917-09-11 09:00:00 NR 40.6000 131.200 main 127 122 __________O___ -1 40.6000 131.200 4 35 58
1917247N11127 1917 39 WP MM NOT_NAMED 1917-09-11 12:00:00 NR 41.6516 133.080 main 111 64 __________P___ -1 41.6516 133.080 4 36 52
1917247N11127 1917 39 WP MM NOT_NAMED 1917-09-11 15:00:00 NR 42.8130 135.013 main 64 50 __________P___ -1 42.8130 135.013 4 37 51
1917247N11127 1917 39 WP MM NOT_NAMED 1917-09-11 18:00:00 NR 43.9676 136.993 main 84 84 __________P___ -1 43.9676 136.993 4 36 53
1917247N11127 1917 39 WP MM NOT_NAMED 1917-09-11 21:00:00 NR 45.0000 139.000 main 134 70 __________O___ -1 45.0000 139.000 4 34 57
1917247N11127 1917 39 WP MM NOT_NAMED 1917-09-12 00:00:00 NR 45.8245 141.004 main 64 0 __________P___ -1 45.8245 141.004 4 31 62
1917247N11127 1917 39 WP MM NOT_NAMED 1917-09-12 03:00:00 NR 46.4657 142.999 main 11 0 __________P___ -1 46.4657 142.999 4 30 67
1917247N11127 1917 39 WP MM NOT_NAMED 1917-09-12 06:00:00 NR 46.9745 144.994 main 118 118 __________P___ -1 46.9745 144.994 4 29 71
1917247N11127 1917 39 WP MM NOT_NAMED 1917-09-12 09:00:00 NR 47.4000 147.000 main 216 __________O___ -1 47.4000 147.000 4 28 73

デジタル台風データ・検索

IBTrACS Databaseについて

本データベースは、米国NOAAが公開する1842年以降の世界の熱帯低気圧のベストトラックデータアーカイブInternational Best Track Archive for Climate Stewardship (IBTrACS)を、ウェブで閲覧しやすい形式に変換したものです。

最終更新日:2021-10-08